createdAt,value
2018-10-16T00:01:50.990Z,15.10
2018-10-16T00:04:18.970Z,16.50
2018-10-16T00:06:47.157Z,16.90
2018-10-16T00:09:15.313Z,17.17
2018-10-16T00:11:54.995Z,15.23
2018-10-16T00:14:22.908Z,14.90
2018-10-16T00:16:50.990Z,18.00
2018-10-16T00:19:19.045Z,15.40
2018-10-16T00:21:47.002Z,15.50
2018-10-16T00:24:14.955Z,15.23
2018-10-16T00:26:43.175Z,15.43
2018-10-16T00:29:11.360Z,14.87
2018-10-16T00:31:39.323Z,14.87
2018-10-16T00:34:08.108Z,13.87
2018-10-16T00:36:43.067Z,17.63
2018-10-16T00:39:15.227Z,16.73
2018-10-16T00:41:43.250Z,14.10
2018-10-16T00:44:12.383Z,17.83
2018-10-16T00:46:41.679Z,12.67
2018-10-16T00:49:09.891Z,20.10
2018-10-16T00:51:39.455Z,13.53
2018-10-16T00:54:07.574Z,14.03
2018-10-16T00:56:35.935Z,15.50
2018-10-16T00:59:04.145Z,16.27
2018-10-16T01:01:33.542Z,13.90
2018-10-16T01:04:04.847Z,14.67
2018-10-16T01:06:33.931Z,16.40
2018-10-16T01:09:02.130Z,12.17
2018-10-16T01:11:30.109Z,14.60
2018-10-16T01:13:58.762Z,12.83
2018-10-16T01:16:26.692Z,12.63
2018-10-16T01:18:54.879Z,12.07
2018-10-16T01:21:22.805Z,13.33
2018-10-16T01:23:50.986Z,13.83
2018-10-16T01:26:19.158Z,13.13
2018-10-16T01:28:47.172Z,12.90
2018-10-16T01:31:15.345Z,13.97
2018-10-16T01:33:43.534Z,16.33
2018-10-16T01:36:12.001Z,14.47
2018-10-16T01:38:40.302Z,15.27
2018-10-16T01:41:09.581Z,14.57
2018-10-16T01:43:38.418Z,14.93
2018-10-16T01:46:06.666Z,15.17
2018-10-16T01:48:34.753Z,13.93
2018-10-16T01:51:02.930Z,12.97
2018-10-16T01:53:30.896Z,15.20
2018-10-16T01:55:59.178Z,15.63
2018-10-16T01:58:27.154Z,16.17
2018-10-16T02:00:55.169Z,15.50
2018-10-16T02:03:23.426Z,17.00
2018-10-16T02:05:51.955Z,15.63
2018-10-16T02:08:20.283Z,14.43
2018-10-16T02:10:48.503Z,15.23
2018-10-16T02:13:16.841Z,17.60
2018-10-16T02:15:44.975Z,16.07
2018-10-16T02:18:13.014Z,17.10
2018-10-16T02:20:40.990Z,18.73
2018-10-16T02:23:09.359Z,16.40
2018-10-16T02:25:37.346Z,15.07
2018-10-16T02:28:05.442Z,14.27
2018-10-16T02:30:33.974Z,16.60
2018-10-16T02:33:02.146Z,14.97
2018-10-16T02:35:30.326Z,14.87
2018-10-16T02:37:58.587Z,15.17
2018-10-16T02:40:26.847Z,17.73
2018-10-16T02:42:55.075Z,14.70
2018-10-16T02:45:23.006Z,15.80
2018-10-16T02:47:50.980Z,14.80
2018-10-16T02:50:18.914Z,15.70
2018-10-16T02:52:46.901Z,17.33
2018-10-16T02:55:15.097Z,14.27
2018-10-16T02:57:43.288Z,14.63
2018-10-16T03:00:11.526Z,14.77
2018-10-16T03:02:39.648Z,15.87
2018-10-16T03:05:07.845Z,20.03
2018-10-16T03:07:36.077Z,14.93
2018-10-16T03:10:04.359Z,16.57
2018-10-16T03:12:39.187Z,14.77
2018-10-16T03:15:09.341Z,15.03
2018-10-16T03:17:37.342Z,16.67
2018-10-16T03:20:05.392Z,15.43
2018-10-16T03:22:33.283Z,16.23
2018-10-16T03:25:01.209Z,13.60
2018-10-16T03:27:29.161Z,16.07
2018-10-16T03:29:57.546Z,21.97
2018-10-16T03:32:25.721Z,18.03
2018-10-16T03:34:53.936Z,16.10
2018-10-16T03:37:22.113Z,15.63
2018-10-16T03:39:50.294Z,19.00
2018-10-16T03:42:18.464Z,15.83
2018-10-16T03:44:46.675Z,16.20
2018-10-16T03:47:14.629Z,15.57
2018-10-16T03:49:42.795Z,17.77
2018-10-16T03:52:10.946Z,17.10
2018-10-16T03:54:38.911Z,16.67
2018-10-16T03:57:06.916Z,17.93
2018-10-16T03:59:35.030Z,18.03
2018-10-16T04:02:03.030Z,17.07
2018-10-16T04:04:30.968Z,16.00
2018-10-16T04:06:58.910Z,17.30
2018-10-16T04:09:27.095Z,17.00
2018-10-16T04:11:55.375Z,15.13
2018-10-16T04:14:23.321Z,16.77
2018-10-16T04:16:51.513Z,17.37
2018-10-16T04:19:19.695Z,15.40
2018-10-16T04:21:48.070Z,16.30
2018-10-16T04:24:16.346Z,18.27
2018-10-16T04:26:44.311Z,19.17
2018-10-16T04:29:13.884Z,19.07
2018-10-16T04:31:41.814Z,17.80
2018-10-16T04:34:10.799Z,20.70
2018-10-16T04:36:39.166Z,18.03
2018-10-16T04:39:10.095Z,18.83
2018-10-16T04:41:38.347Z,23.10
2018-10-16T04:44:06.213Z,17.43
2018-10-16T04:46:34.178Z,20.50
2018-10-16T04:49:02.364Z,16.87
2018-10-16T04:51:30.338Z,18.03
2018-10-16T04:53:58.282Z,14.50
2018-10-16T04:56:26.976Z,18.10
2018-10-16T04:58:54.917Z,18.10
2018-10-16T05:01:22.870Z,15.93
2018-10-16T05:03:51.033Z,20.17
2018-10-16T05:06:19.001Z,16.63
2018-10-16T05:08:47.218Z,18.13
2018-10-16T05:11:15.415Z,16.87
2018-10-16T05:13:43.554Z,21.40
2018-10-16T05:16:11.774Z,24.07
2018-10-16T05:18:39.972Z,17.33
2018-10-16T05:21:08.140Z,19.83
2018-10-16T05:23:36.060Z,19.57
2018-10-16T05:26:04.328Z,18.00
2018-10-16T05:28:32.528Z,17.50
2018-10-16T05:31:00.723Z,18.90
2018-10-16T05:33:28.593Z,26.43
2018-10-16T05:35:56.762Z,18.10
2018-10-16T05:38:25.017Z,20.20
2018-10-16T05:40:52.953Z,17.57
2018-10-16T05:43:21.163Z,17.70
2018-10-16T05:45:49.087Z,18.23
2018-10-16T05:48:17.045Z,16.37
2018-10-16T05:50:44.958Z,19.17
2018-10-16T05:53:13.150Z,17.07
2018-10-16T05:55:41.073Z,20.63
2018-10-16T05:58:09.111Z,18.83
2018-10-16T06:00:42.300Z,18.13
2018-10-16T06:03:10.549Z,16.17
2018-10-16T06:05:38.879Z,16.33
2018-10-16T06:08:07.238Z,19.30
2018-10-16T06:10:35.593Z,18.10
2018-10-16T06:13:03.810Z,20.17
2018-10-16T06:15:31.741Z,18.87
2018-10-16T06:17:59.913Z,19.20
2018-10-16T06:20:28.206Z,17.27
2018-10-16T06:22:56.770Z,19.60
2018-10-16T06:25:24.788Z,17.90
2018-10-16T06:27:52.764Z,16.57
2018-10-16T06:30:21.055Z,19.60
2018-10-16T06:32:49.167Z,16.90
2018-10-16T06:35:17.385Z,18.00
2018-10-16T06:37:45.359Z,19.37
2018-10-16T06:40:13.448Z,19.60
2018-10-16T06:42:41.409Z,20.57
2018-10-16T06:45:10.761Z,17.57
2018-10-16T06:47:38.835Z,20.13
2018-10-16T06:50:07.743Z,18.83
2018-10-16T06:52:35.731Z,18.13
2018-10-16T06:55:04.126Z,18.03
2018-10-16T06:57:32.278Z,15.87
2018-10-16T07:00:01.611Z,23.67
2018-10-16T07:02:29.555Z,18.00
2018-10-16T07:04:57.741Z,22.23
2018-10-16T07:07:26.048Z,20.97
2018-10-16T07:09:54.185Z,16.00
2018-10-16T07:12:22.406Z,20.93
2018-10-16T07:14:50.744Z,23.07
2018-10-16T07:17:18.979Z,19.23
2018-10-16T07:19:46.928Z,23.50
2018-10-16T07:22:14.899Z,19.13
2018-10-16T07:24:43.046Z,26.83
2018-10-16T07:27:10.955Z,19.30
2018-10-16T07:29:39.118Z,20.77
2018-10-16T07:32:07.334Z,18.07
2018-10-16T07:34:36.080Z,21.17
2018-10-16T07:37:04.461Z,20.13
2018-10-16T07:39:32.611Z,15.53
2018-10-16T07:42:00.749Z,16.43
2018-10-16T07:44:28.795Z,16.93
2018-10-16T07:46:56.726Z,22.70
2018-10-16T07:49:24.881Z,24.43
2018-10-16T07:51:53.113Z,18.27
2018-10-16T07:54:21.395Z,22.23
2018-10-16T07:56:49.690Z,23.27
2018-10-16T07:59:18.071Z,19.17
2018-10-16T08:01:46.420Z,21.80
2018-10-16T08:04:14.602Z,18.23
2018-10-16T08:06:42.777Z,17.87
2018-10-16T08:09:13.714Z,35.07
2018-10-16T08:11:46.995Z,23.23
2018-10-16T08:14:16.165Z,29.77
2018-10-16T08:16:46.123Z,24.40
2018-10-16T08:19:14.838Z,20.07
2018-10-16T08:21:43.630Z,18.97
2018-10-16T08:24:11.646Z,21.27
2018-10-16T08:26:40.144Z,24.57
2018-10-16T08:29:08.529Z,21.63
2018-10-16T08:31:36.866Z,20.77
2018-10-16T08:34:05.270Z,21.97
2018-10-16T08:36:33.446Z,23.47
2018-10-16T08:39:11.925Z,26.70
2018-10-16T08:42:17.319Z,21.13
2018-10-16T08:45:25.669Z,26.27
2018-10-16T08:47:59.658Z,21.47
2018-10-16T08:50:40.936Z,30.50
2018-10-16T08:53:09.118Z,30.27
2018-10-16T08:55:37.278Z,15.10
2018-10-16T08:58:05.669Z,18.20
2018-10-16T09:00:38.145Z,18.87
2018-10-16T09:03:08.270Z,16.97
2018-10-16T09:05:36.303Z,17.10
2018-10-16T09:08:04.528Z,18.23
2018-10-16T09:10:32.714Z,15.37
2018-10-16T09:13:00.644Z,15.67
2018-10-16T09:15:28.561Z,15.90
2018-10-16T09:17:56.726Z,17.30
2018-10-16T09:20:24.889Z,17.00
2018-10-16T09:22:53.054Z,16.33
2018-10-16T09:25:21.033Z,17.90
2018-10-16T09:27:49.222Z,16.73
2018-10-16T09:30:17.385Z,17.67
2018-10-16T09:32:45.297Z,19.40
2018-10-16T09:35:13.667Z,15.07
2018-10-16T09:37:41.949Z,15.37
2018-10-16T09:40:11.424Z,26.67
2018-10-16T09:42:39.593Z,16.87
2018-10-16T09:45:08.833Z,26.33
2018-10-16T09:47:36.809Z,17.43
2018-10-16T09:50:05.590Z,16.40
2018-10-16T09:52:33.774Z,16.27
2018-10-16T09:55:01.952Z,13.03
2018-10-16T09:57:30.150Z,15.03
2018-10-16T09:59:58.346Z,16.43
2018-10-16T10:02:26.567Z,12.70
2018-10-16T10:04:54.825Z,14.60
2018-10-16T10:07:23.090Z,13.97
2018-10-16T10:09:51.030Z,14.97
2018-10-16T10:12:19.198Z,17.73
2018-10-16T10:14:47.137Z,20.73
2018-10-16T10:17:15.149Z,20.10
2018-10-16T10:19:43.073Z,17.57
2018-10-16T10:22:11.017Z,13.27
2018-10-16T10:24:39.226Z,15.73
2018-10-16T10:27:07.441Z,12.23
2018-10-16T10:29:35.715Z,15.43
2018-10-16T10:32:03.614Z,14.17
2018-10-16T10:34:31.803Z,12.97
2018-10-16T10:36:59.983Z,15.63
2018-10-16T10:39:28.150Z,13.67
2018-10-16T10:41:56.354Z,10.90
2018-10-16T10:44:24.493Z,19.03
2018-10-16T10:46:52.730Z,11.80
2018-10-16T10:49:20.927Z,13.57
2018-10-16T10:51:48.878Z,12.00
2018-10-16T10:54:17.068Z,10.07
2018-10-16T10:56:45.084Z,9.07
2018-10-16T10:59:13.138Z,11.07
2018-10-16T11:01:41.278Z,9.07
2018-10-16T11:04:09.462Z,7.00
2018-10-16T11:06:37.660Z,8.77
2018-10-16T11:09:07.014Z,9.03
2018-10-16T11:11:35.191Z,7.10
2018-10-16T11:14:03.382Z,8.10
2018-10-16T11:16:31.334Z,12.33
2018-10-16T11:18:59.607Z,8.07
2018-10-16T11:21:27.778Z,7.10
2018-10-16T11:23:55.689Z,12.50
2018-10-16T11:26:23.882Z,7.93
2018-10-16T11:28:51.809Z,8.33
2018-10-16T11:31:20.036Z,9.47
2018-10-16T11:33:47.977Z,7.30
2018-10-16T11:36:16.125Z,7.80
2018-10-16T11:38:44.081Z,10.73
2018-10-16T11:41:11.981Z,7.37
2018-10-16T11:43:40.194Z,9.93
2018-10-16T11:46:08.407Z,7.60
2018-10-16T11:48:36.581Z,9.43
2018-10-16T11:51:05.100Z,7.43
2018-10-16T11:53:33.022Z,7.27
2018-10-16T11:56:01.292Z,8.97
2018-10-16T11:58:29.139Z,8.33
2018-10-16T12:00:57.305Z,7.33
2018-10-16T12:03:25.479Z,7.07
2018-10-16T12:05:53.694Z,7.03
2018-10-16T12:08:21.832Z,6.53
2018-10-16T12:10:49.792Z,6.27
2018-10-16T12:13:17.761Z,5.90
2018-10-16T12:15:45.695Z,7.33
2018-10-16T12:18:17.862Z,7.10
2018-10-16T12:20:50.766Z,6.57
2018-10-16T12:23:18.944Z,9.50
2018-10-16T12:25:47.130Z,6.80
2018-10-16T12:28:15.102Z,6.67
2018-10-16T12:30:43.253Z,8.90
2018-10-16T12:33:11.504Z,6.40
2018-10-16T12:35:39.602Z,7.57
2018-10-16T12:38:07.779Z,6.97
2018-10-16T12:40:35.950Z,6.47
2018-10-16T12:43:03.974Z,9.33
2018-10-16T12:45:31.998Z,6.40
2018-10-16T12:48:00.203Z,10.83
2018-10-16T12:50:28.184Z,9.43
2018-10-16T12:52:56.392Z,7.10
2018-10-16T12:55:24.254Z,6.33
2018-10-16T12:57:52.422Z,6.77
2018-10-16T13:00:20.335Z,6.37
2018-10-16T13:02:48.571Z,6.10
2018-10-16T13:05:16.774Z,7.77
2018-10-16T13:07:44.656Z,7.83
2018-10-16T13:10:14.045Z,8.43
2018-10-16T13:12:43.050Z,8.27
2018-10-16T13:15:12.945Z,8.13
2018-10-16T13:17:41.258Z,6.57
2018-10-16T13:20:10.296Z,8.77
2018-10-16T13:22:38.790Z,10.60
2018-10-16T13:25:08.079Z,6.03
2018-10-16T13:27:36.274Z,5.90
2018-10-16T13:30:04.729Z,8.27
2018-10-16T13:32:32.846Z,8.47
2018-10-16T13:35:01.014Z,8.10
2018-10-16T13:37:29.114Z,6.73
2018-10-16T13:39:57.363Z,6.30
2018-10-16T13:42:25.566Z,7.43
2018-10-16T13:44:53.665Z,9.63
2018-10-16T13:47:21.616Z,9.50
2018-10-16T13:49:49.538Z,7.60
2018-10-16T13:52:17.721Z,6.27
2018-10-16T13:54:45.884Z,7.63
2018-10-16T13:57:14.058Z,6.13
2018-10-16T13:59:42.231Z,7.97
2018-10-16T14:02:10.499Z,6.83
2018-10-16T14:04:38.601Z,6.03
2018-10-16T14:07:06.765Z,7.17
2018-10-16T14:09:34.944Z,6.57
2018-10-16T14:12:03.162Z,7.37
2018-10-16T14:14:31.313Z,9.50
2018-10-16T14:16:59.503Z,7.53
2018-10-16T14:19:27.638Z,8.10
2018-10-16T14:21:55.847Z,9.77
2018-10-16T14:24:24.012Z,10.03
2018-10-16T14:26:52.162Z,8.00
2018-10-16T14:29:20.337Z,6.87
2018-10-16T14:31:48.498Z,6.43
2018-10-16T14:34:16.719Z,8.97
2018-10-16T14:36:44.813Z,6.17
2018-10-16T14:39:12.842Z,9.10
2018-10-16T14:41:41.117Z,6.87
2018-10-16T14:44:09.691Z,8.00
2018-10-16T14:46:37.790Z,10.13
2018-10-16T14:49:06.059Z,7.00
2018-10-16T14:51:35.182Z,6.73
2018-10-16T14:54:03.136Z,9.40
2018-10-16T14:56:31.869Z,11.13
2018-10-16T14:58:59.906Z,10.00
2018-10-16T15:01:28.193Z,13.47
2018-10-16T15:03:56.442Z,8.97
2018-10-16T15:06:24.865Z,10.43
2018-10-16T15:08:53.185Z,6.67
2018-10-16T15:11:21.433Z,8.43
2018-10-16T15:13:49.694Z,7.13
2018-10-16T15:16:17.714Z,8.97
2018-10-16T15:18:45.805Z,6.77
2018-10-16T15:21:13.704Z,13.37
2018-10-16T15:23:41.959Z,9.07
2018-10-16T15:26:10.066Z,7.50
2018-10-16T15:28:38.166Z,9.77
2018-10-16T15:31:06.319Z,8.23
2018-10-16T15:33:34.489Z,8.07
2018-10-16T15:36:09.145Z,10.03
2018-10-16T15:38:37.206Z,6.93
2018-10-16T15:41:05.722Z,6.80
2018-10-16T15:43:33.871Z,11.30
2018-10-16T15:46:01.887Z,11.43
2018-10-16T15:48:30.011Z,10.27
2018-10-16T15:50:58.219Z,9.17
2018-10-16T15:53:26.377Z,10.37
2018-10-16T15:55:54.535Z,8.10
2018-10-16T15:58:22.432Z,8.60
2018-10-16T16:00:50.572Z,9.93
2018-10-16T16:03:18.714Z,6.60
2018-10-16T16:05:46.922Z,6.47
2018-10-16T16:08:15.119Z,7.23
2018-10-16T16:10:42.990Z,6.60
2018-10-16T16:13:11.590Z,8.07
2018-10-16T16:15:39.605Z,7.63
2018-10-16T16:18:07.815Z,10.07
2018-10-16T16:20:35.707Z,8.40
2018-10-16T16:23:03.854Z,7.57
2018-10-16T16:25:32.015Z,7.07
2018-10-16T16:27:59.926Z,7.13
2018-10-16T16:30:28.087Z,14.03
2018-10-16T16:32:56.230Z,7.27
2018-10-16T16:35:24.390Z,10.60
2018-10-16T16:37:52.532Z,6.90
2018-10-16T16:40:20.693Z,8.57
2018-10-16T16:42:48.591Z,12.67
2018-10-16T16:45:16.568Z,11.40
2018-10-16T16:47:44.471Z,8.70
2018-10-16T16:50:12.984Z,10.77
2018-10-16T16:52:41.778Z,16.27
2018-10-16T16:55:11.487Z,12.57
2018-10-16T16:57:39.408Z,15.03
2018-10-16T17:00:10.343Z,13.77
2018-10-16T17:02:38.926Z,18.30
2018-10-16T17:05:07.162Z,14.83
2018-10-16T17:07:35.282Z,13.57
2018-10-16T17:10:03.520Z,16.07
2018-10-16T17:12:31.725Z,13.33
2018-10-16T17:14:59.805Z,13.27
2018-10-16T17:17:27.966Z,15.50
2018-10-16T17:19:56.202Z,16.93
2018-10-16T17:22:24.299Z,13.43
2018-10-16T17:24:52.542Z,17.77
2018-10-16T17:27:20.585Z,16.50
2018-10-16T17:29:48.653Z,15.73
2018-10-16T17:32:16.901Z,15.40
2018-10-16T17:34:45.070Z,11.33
2018-10-16T17:37:12.977Z,14.53
2018-10-16T17:39:41.126Z,18.43
2018-10-16T17:42:09.272Z,15.73
2018-10-16T17:44:37.433Z,14.90
2018-10-16T17:47:05.379Z,23.43
2018-10-16T17:49:33.547Z,14.83
2018-10-16T17:52:01.710Z,15.73
2018-10-16T17:54:29.862Z,17.70
2018-10-16T17:56:58.011Z,18.17
2018-10-16T17:59:25.921Z,17.17
2018-10-16T18:01:54.129Z,16.27
2018-10-16T18:04:22.031Z,17.07
2018-10-16T18:06:50.161Z,25.23
2018-10-16T18:09:18.069Z,19.20
2018-10-16T18:11:46.288Z,17.37
2018-10-16T18:14:14.418Z,15.00
2018-10-16T18:16:42.550Z,18.43
2018-10-16T18:19:10.705Z,17.80
2018-10-16T18:21:38.861Z,17.60
2018-10-16T18:24:07.104Z,14.80
2018-10-16T18:26:35.063Z,17.10
2018-10-16T18:29:03.243Z,11.80
2018-10-16T18:31:31.447Z,15.43
2018-10-16T18:33:59.382Z,15.47
2018-10-16T18:36:27.628Z,16.77
2018-10-16T18:38:56.340Z,17.03
2018-10-16T18:41:24.263Z,14.33
2018-10-16T18:43:52.166Z,16.27
2018-10-16T18:46:20.322Z,12.83
2018-10-16T18:48:48.246Z,13.90
2018-10-16T18:51:16.509Z,12.87
2018-10-16T18:53:44.525Z,15.43
2018-10-16T18:56:12.681Z,15.90
2018-10-16T18:58:40.653Z,20.20
2018-10-16T19:01:08.879Z,15.13
2018-10-16T19:03:37.079Z,15.00
2018-10-16T19:06:05.381Z,19.10
2018-10-16T19:08:33.574Z,14.07
2018-10-16T19:11:01.843Z,16.23
2018-10-16T19:13:29.915Z,17.13
2018-10-16T19:15:58.230Z,17.33
2018-10-16T19:18:26.453Z,16.00
2018-10-16T19:20:55.090Z,17.37
2018-10-16T19:23:23.105Z,12.93
2018-10-16T19:25:51.085Z,15.70
2018-10-16T19:28:19.442Z,11.50
2018-10-16T19:30:47.373Z,13.43
2018-10-16T19:33:15.715Z,10.40
2018-10-16T19:35:43.866Z,11.63
2018-10-16T19:38:12.039Z,13.43
2018-10-16T19:40:40.273Z,11.10
2018-10-16T19:43:08.588Z,13.23
2018-10-16T19:45:36.984Z,16.37
2018-10-16T19:48:05.116Z,12.40
2018-10-16T19:50:33.157Z,11.93
2018-10-16T19:53:01.097Z,18.30
2018-10-16T19:55:29.053Z,16.97
2018-10-16T19:57:57.426Z,15.30
2018-10-16T20:00:25.634Z,13.73
2018-10-16T20:02:54.015Z,13.40
2018-10-16T20:05:22.299Z,14.10
2018-10-16T20:07:50.709Z,15.33
2018-10-16T20:10:19.041Z,14.13
2018-10-16T20:12:46.972Z,13.57
2018-10-16T20:15:15.089Z,11.60
2018-10-16T20:17:43.131Z,12.50
2018-10-16T20:20:12.100Z,17.40
2018-10-16T20:22:40.537Z,12.37
2018-10-16T20:25:09.699Z,15.17
2018-10-16T20:27:37.592Z,13.70
2018-10-16T20:30:06.131Z,14.70
2018-10-16T20:32:34.278Z,14.97
2018-10-16T20:35:02.386Z,14.70
2018-10-16T20:37:30.772Z,13.80
2018-10-16T20:39:59.042Z,13.53
2018-10-16T20:42:27.201Z,11.27
2018-10-16T20:44:55.370Z,11.47
2018-10-16T20:47:23.690Z,16.20
2018-10-16T20:49:51.855Z,15.93
2018-10-16T20:52:20.022Z,13.17
2018-10-16T20:54:48.166Z,15.13
2018-10-16T20:57:16.363Z,12.10
2018-10-16T20:59:45.298Z,12.70
2018-10-16T21:02:13.325Z,13.10
2018-10-16T21:04:41.689Z,16.00
2018-10-16T21:07:09.554Z,13.70
2018-10-16T21:09:37.646Z,15.20
2018-10-16T21:12:06.674Z,16.67
2018-10-16T21:14:34.590Z,17.03
2018-10-16T21:17:02.744Z,15.53
2018-10-16T21:19:30.975Z,15.47
2018-10-16T21:21:58.801Z,15.33
2018-10-16T21:24:26.938Z,15.23
2018-10-16T21:27:00.896Z,14.63
2018-10-16T21:29:29.050Z,17.00
2018-10-16T21:31:57.217Z,16.07
2018-10-16T21:34:25.349Z,14.27
2018-10-16T21:36:53.529Z,15.17
2018-10-16T21:39:21.750Z,13.80
2018-10-16T21:41:49.564Z,15.73
2018-10-16T21:44:17.822Z,16.40
2018-10-16T21:46:45.959Z,13.10
2018-10-16T21:49:14.133Z,15.47
2018-10-16T21:51:42.497Z,16.30
2018-10-16T21:54:10.683Z,14.77
2018-10-16T21:56:39.242Z,17.90
2018-10-16T21:59:07.312Z,18.13
2018-10-16T22:01:40.801Z,14.57
2018-10-16T22:04:08.950Z,13.07
2018-10-16T22:06:37.122Z,14.20
2018-10-16T22:09:09.194Z,15.23
2018-10-16T22:11:37.373Z,17.77
2018-10-16T22:14:05.305Z,18.10
2018-10-16T22:16:33.522Z,16.30
2018-10-16T22:19:01.701Z,15.37
2018-10-16T22:21:29.936Z,16.20
2018-10-16T22:23:58.065Z,14.40
2018-10-16T22:26:26.438Z,12.67
2018-10-16T22:28:54.689Z,15.00
2018-10-16T22:31:22.818Z,15.57
2018-10-16T22:33:51.021Z,15.60
2018-10-16T22:36:18.941Z,14.67
2018-10-16T22:38:47.204Z,14.57
2018-10-16T22:41:15.433Z,13.13
2018-10-16T22:43:43.561Z,17.00
2018-10-16T22:46:11.694Z,14.83
2018-10-16T22:48:39.951Z,14.77
2018-10-16T22:51:07.899Z,15.20
2018-10-16T22:53:36.183Z,14.73
2018-10-16T22:56:04.334Z,15.60
2018-10-16T22:58:32.537Z,14.10
2018-10-16T23:01:00.708Z,24.20
2018-10-16T23:03:28.700Z,25.30
2018-10-16T23:05:57.217Z,22.17
2018-10-16T23:08:25.477Z,22.53
2018-10-16T23:10:53.998Z,20.77
2018-10-16T23:13:22.111Z,20.53
2018-10-16T23:15:50.462Z,23.80
2018-10-16T23:18:18.608Z,22.80
2018-10-16T23:20:46.539Z,21.37
2018-10-16T23:23:14.546Z,23.27
2018-10-16T23:25:42.354Z,22.10
2018-10-16T23:28:10.509Z,19.53
2018-10-16T23:30:38.669Z,19.03
2018-10-16T23:33:06.601Z,23.60
2018-10-16T23:35:34.749Z,21.27
2018-10-16T23:38:02.984Z,19.23
2018-10-16T23:40:31.149Z,16.97
2018-10-16T23:42:59.320Z,16.33
2018-10-16T23:45:27.445Z,14.73
2018-10-16T23:47:55.621Z,20.20
2018-10-16T23:50:23.754Z,14.23
2018-10-16T23:52:51.696Z,15.10
2018-10-16T23:55:19.785Z,18.87
2018-10-16T23:57:47.932Z,15.80
